Time;durP1;ratioP1;P1;durP2;ratioP2;P2;SDS_P1;SDS_P2;PMS_P1;PMS_P2;Temp;Humidity;BMP_temperature;BMP_pressure;BME280_temperature;BME280_humidity;BME280_pressure;Samples;Min_cycle;Max_cycle;Signal;HPM_P1;HPM_P2
2022/10/03 00:00:56;;;;;;;19.15;2.22;;;10.80;76.90;;;;;;4130152;28;20580;-82
2022/10/03 00:03:32;;;;;;;21.17;2.50;;;10.80;76.90;;;;;;4116431;28;20639;-82
2022/10/03 00:06:08;;;;;;;16.65;1.75;;;10.70;76.80;;;;;;4131512;28;20126;-83
2022/10/03 00:08:42;;;;;;;22.98;3.22;;;10.80;76.80;;;;;;4130041;28;20053;-83
2022/10/03 00:11:11;;;;;;;;;;;10.70;76.70;;;;;;4122206;28;20799;-83
2022/10/03 00:14:03;;;;;;;11.95;1.92;;;10.70;76.80;;;;;;4128558;28;19920;-84
2022/10/03 00:16:46;;;;;;;20.35;2.50;;;10.70;76.50;;;;;;4131081;28;20117;-83
2022/10/03 00:19:34;;;;;;;20.60;2.33;;;10.70;76.50;;;;;;4125768;28;20052;-83
2022/10/03 00:22:23;;;;;;;21.25;2.13;;;10.70;76.70;;;;;;4115268;28;20122;-84
2022/10/03 00:25:19;;;;;;;18.40;2.30;;;10.70;76.70;;;;;;4116304;28;20056;-83
2022/10/03 00:27:46;;;;;;;21.23;2.35;;;10.70;76.70;;;;;;4129888;28;20057;-83
2022/10/03 00:30:15;;;;;;;18.55;1.95;;;10.70;76.60;;;;;;4132049;28;20109;-83
2022/10/03 00:32:42;;;;;;;16.15;2.15;;;10.70;76.70;;;;;;4132756;28;20099;-83
2022/10/03 00:35:01;;;;;;;22.65;2.15;;;10.60;76.60;;;;;;4130860;28;20073;-84
2022/10/03 00:37:26;;;;;;;16.38;2.10;;;10.80;76.70;;;;;;4132234;28;20106;-83
2022/10/03 00:40:21;;;;;;;14.43;2.17;;;10.60;76.60;;;;;;4130017;28;20057;-84
2022/10/03 00:42:49;;;;;;;27.58;2.80;;;10.60;76.70;;;;;;4115515;28;20057;-83
2022/10/03 00:45:37;;;;;;;23.23;3.25;;;10.80;76.80;;;;;;4113911;28;20045;-83
2022/10/03 00:48:43;;;;;;;16.98;2.55;;;10.60;76.70;;;;;;4131558;28;20037;-83
2022/10/03 00:51:20;;;;;;;;;;;10.60;76.70;;;;;;4099755;28;20149;-83
2022/10/03 00:54:04;;;;;;;16.90;1.95;;;10.60;76.90;;;;;;4132799;28;20291;-82
2022/10/03 00:57:13;;;;;;;16.80;2.85;;;10.60;76.50;;;;;;4131025;28;20037;-84
2022/10/03 00:59:45;;;;;;;21.52;3.05;;;10.60;76.70;;;;;;4103217;28;20061;-84
2022/10/03 01:02:41;;;;;;;18.35;1.92;;;10.60;76.60;;;;;;4130283;28;20056;-84
2022/10/03 01:05:28;;;;;;;20.13;2.40;;;10.60;76.70;;;;;;4133465;28;20582;-84
2022/10/03 01:08:23;;;;;;;17.85;2.17;;;10.60;76.70;;;;;;4129092;28;20042;-83
2022/10/03 01:10:43;;;;;;;23.02;2.22;;;10.60;76.90;;;;;;4115263;28;20053;-83
2022/10/03 01:13:11;;;;;;;25.55;2.85;;;10.60;76.70;;;;;;4131604;28;20128;-84
2022/10/03 01:15:31;;;;;;;18.70;2.95;;;10.50;76.90;;;;;;4133054;28;20610;-84
2022/10/03 01:18:13;;;;;;;26.85;2.70;;;10.60;77.00;;;;;;4134750;28;20057;-84
2022/10/03 01:20:38;;;;;;;18.25;2.60;;;10.50;77.00;;;;;;4088789;28;20583;-83
2022/10/03 01:23:10;;;;;;;27.58;2.92;;;10.50;77.00;;;;;;4134596;28;20053;-83
2022/10/03 01:25:44;;;;;;;23.42;2.25;;;10.50;77.10;;;;;;4128020;28;20594;-84
2022/10/03 01:30:54;;;;;;;17.33;2.42;;;10.40;77.40;;;;;;4131290;28;19971;-83
2022/10/03 01:33:27;;;;;;;28.83;2.65;;;10.50;77.30;;;;;;4136195;28;20118;-83
2022/10/03 01:35:46;;;;;;;27.58;2.97;;;10.60;77.50;;;;;;4118214;28;20069;-84
2022/10/03 01:38:19;;;;;;;28.05;3.17;;;10.60;77.60;;;;;;4133801;28;20041;-84
2022/10/03 01:40:46;;;;;;;23.73;2.97;;;10.60;77.80;;;;;;4133680;28;20055;-83
2022/10/03 01:43:19;;;;;;;19.67;2.67;;;10.50;77.80;;;;;;4118410;28;20118;-84
2022/10/03 01:45:50;;;;;;;28.88;3.50;;;10.60;77.90;;;;;;4119097;28;20041;-84
2022/10/03 01:48:21;;;;;;;21.85;2.85;;;10.60;78.00;;;;;;4133296;28;20535;-84
2022/10/03 01:51:02;;;;;;;28.13;2.67;;;10.60;78.10;;;;;;4118704;28;20045;-83
2022/10/03 01:53:28;;;;;;;29.85;3.97;;;10.60;78.20;;;;;;4144382;28;20061;-84
2022/10/03 01:56:14;;;;;;;21.05;2.85;;;10.60;78.10;;;;;;4121689;28;20070;-84
2022/10/03 01:58:58;;;;;;;21.98;2.90;;;10.60;78.10;;;;;;4133964;28;20074;-83
2022/10/03 02:01:27;;;;;;;34.00;4.20;;;10.60;78.10;;;;;;4119028;28;20045;-84
2022/10/03 02:04:20;;;;;;;30.88;3.58;;;10.60;78.10;;;;;;4118499;28;20464;-85
2022/10/03 02:06:57;;;;;;;21.40;3.05;;;10.70;78.10;;;;;;4130490;28;20037;-83
2022/10/03 02:09:52;;;;;;;22.10;2.67;;;10.70;78.10;;;;;;4135484;28;20063;-85
2022/10/03 02:12:23;;;;;;;;;;;10.70;78.10;;;;;;4132414;28;20463;-84
2022/10/03 02:15:06;;;;;;;22.23;2.78;;;10.70;78.90;;;;;;4132069;28;19976;-85
2022/10/03 02:17:48;;;;;;;26.17;3.42;;;10.70;77.90;;;;;;4116744;28;20042;-85
2022/10/03 02:20:19;;;;;;;30.60;3.00;;;10.70;78.00;;;;;;4135438;28;20040;-84
2022/10/03 02:22:47;;;;;;;24.48;3.47;;;10.70;78.00;;;;;;4133389;28;20091;-83
2022/10/03 02:25:23;;;;;;;17.85;2.67;;;10.80;78.20;;;;;;4129438;28;20041;-83
2022/10/03 02:28:01;;;;;;;27.23;3.65;;;10.70;78.10;;;;;;4132613;28;20040;-83
2022/10/03 02:30:55;;;;;;;22.05;2.78;;;10.80;78.10;;;;;;4116871;28;20045;-84
2022/10/03 02:33:21;;;;;;;24.15;2.92;;;10.80;78.10;;;;;;4145947;28;20076;-84
2022/10/03 02:35:58;;;;;;;24.67;3.35;;;10.90;78.20;;;;;;4131904;28;20037;-83
2022/10/03 02:38:44;;;;;;;16.80;3.05;;;10.80;78.10;;;;;;4131813;28;20109;-84
2022/10/03 02:41:26;;;;;;;25.98;3.13;;;10.80;78.10;;;;;;4134726;28;20200;-84
2022/10/03 02:43:58;;;;;;;26.90;3.58;;;10.80;78.00;;;;;;4131496;28;20061;-84
2022/10/03 02:46:38;;;;;;;13.73;2.33;;;10.80;78.00;;;;;;4141924;28;20113;-84
2022/10/03 02:49:33;;;;;;;28.52;3.15;;;10.80;78.00;;;;;;4136406;28;20064;-83
2022/10/03 02:52:05;;;;;;;31.60;4.00;;;10.80;77.90;;;;;;4132826;28;20037;-84
2022/10/03 02:54:46;;;;;;;32.92;3.28;;;10.80;77.90;;;;;;4120434;28;20138;-83
2022/10/03 02:57:22;;;;;;;28.95;3.30;;;10.80;77.80;;;;;;4135403;28;20547;-83
2022/10/03 02:59:50;;;;;;;31.92;3.65;;;10.90;77.80;;;;;;4133560;28;20041;-84
2022/10/03 03:02:53;;;;;;;22.10;3.00;;;10.80;77.70;;;;;;4135232;28;20085;-83
2022/10/03 03:05:15;;;;;;;24.73;3.17;;;10.90;77.70;;;;;;4115159;28;20061;-84
2022/10/03 03:08:07;;;;;;;33.75;3.33;;;10.90;77.60;;;;;;4132766;28;20049;-84
2022/10/03 03:10:46;;;;;;;27.27;3.45;;;10.90;77.70;;;;;;4108377;28;20037;-83
2022/10/03 03:13:43;;;;;;;27.25;3.30;;;11.00;77.80;;;;;;4134104;28;20049;-84
2022/10/03 03:16:22;;;;;;;20.45;3.05;;;10.90;77.60;;;;;;4127568;28;20050;-83
2022/10/03 03:19:03;;;;;;;24.73;3.00;;;10.80;77.50;;;;;;4130427;28;20057;-83
2022/10/03 03:21:40;;;;;;;26.48;2.72;;;10.80;77.50;;;;;;4129809;28;20041;-84
2022/10/03 03:24:29;;;;;;;28.60;3.67;;;10.80;77.60;;;;;;4131209;28;20041;-85
2022/10/03 03:27:37;;;;;;;20.60;2.63;;;10.80;77.60;;;;;;4118994;28;20053;-84
2022/10/03 03:30:10;;;;;;;36.22;3.72;;;10.80;77.70;;;;;;4125106;28;20080;-83
2022/10/03 03:32:36;;;;;;;22.55;2.75;;;10.80;77.70;;;;;;4128364;28;20089;-83
2022/10/03 03:35:23;;;;;;;27.95;3.20;;;10.90;77.80;;;;;;4133797;28;20717;-84
2022/10/03 03:37:52;;;;;;;26.60;2.80;;;10.80;77.70;;;;;;4137211;28;20077;-83
2022/10/03 03:40:31;;;;;;;28.67;3.45;;;10.90;77.70;;;;;;4118833;28;20154;-84
2022/10/03 03:43:38;;;;;;;24.60;3.17;;;11.00;77.80;;;;;;4132925;28;20589;-84
2022/10/03 03:46:25;;;;;;;27.75;3.33;;;10.80;77.70;;;;;;4125833;28;20045;-84
2022/10/03 03:49:20;;;;;;;22.27;2.75;;;10.80;77.70;;;;;;4134359;28;20037;-84
2022/10/03 03:51:56;;;;;;;25.67;3.13;;;10.80;77.80;;;;;;4116550;28;20045;-84
2022/10/03 03:54:53;;;;;;;35.13;3.40;;;10.90;77.90;;;;;;4133630;28;20069;-83
2022/10/03 03:57:50;;;;;;;31.88;3.78;;;10.80;78.00;;;;;;4079765;29;20601;-84
2022/10/03 04:00:20;;;;;;;24.67;3.33;;;10.80;78.00;;;;;;4138123;28;20098;-84
2022/10/03 04:02:58;;;;;;;24.60;3.00;;;10.80;77.90;;;;;;4120502;28;20033;-82
2022/10/03 04:05:27;;;;;;;30.88;3.22;;;10.80;77.90;;;;;;4134480;28;20053;-84
2022/10/03 04:08:28;;;;;;;28.42;3.65;;;10.80;78.00;;;;;;4129621;28;20046;-83
2022/10/03 04:11:07;;;;;;;30.88;2.92;;;10.80;78.10;;;;;;4135431;28;20257;-84
2022/10/03 04:13:41;;;;;;;17.60;2.72;;;10.80;78.00;;;;;;4119400;28;20073;-83
2022/10/03 04:19:30;;;;;;;28.52;3.20;;;10.80;78.20;;;;;;4132220;28;20046;-82
2022/10/03 04:22:16;;;;;;;23.85;2.90;;;10.80;78.20;;;;;;4133351;28;20108;-84
2022/10/03 04:24:48;;;;;;;23.65;2.97;;;10.80;78.30;;;;;;4135519;28;20044;-84
2022/10/03 04:27:22;;;;;;;22.35;2.88;;;10.80;78.30;;;;;;4122660;28;20050;-83
2022/10/03 04:30:00;;;;;;;18.75;2.78;;;10.80;78.30;;;;;;4133917;28;20599;-84
2022/10/03 04:32:57;;;;;;;18.45;2.55;;;10.80;78.40;;;;;;4134479;28;20201;-84
2022/10/03 04:36:08;;;;;;;23.92;2.50;;;10.70;78.50;;;;;;4117055;28;20699;-83
2022/10/03 04:38:49;;;;;;;20.08;2.40;;;10.80;78.60;;;;;;4119254;28;20042;-85
2022/10/03 04:41:48;;;;;;;22.75;3.20;;;10.80;78.60;;;;;;4133403;28;20048;-84
2022/10/03 04:44:31;;;;;;;27.27;3.10;;;10.90;78.70;;;;;;4134460;28;20038;-84
2022/10/03 04:47:05;;;;;;;20.60;3.22;;;10.90;78.90;;;;;;4133001;28;20463;-84
2022/10/03 04:49:45;;;;;;;27.20;3.22;;;11.00;79.10;;;;;;4122249;28;20042;-83
2022/10/03 04:52:12;;;;;;;21.35;2.65;;;10.90;79.10;;;;;;4133075;28;20049;-83
2022/10/03 04:54:46;;;;;;;21.88;2.53;;;11.00;79.30;;;;;;4114927;28;20110;-83
2022/10/03 04:57:18;;;;;;;;;;;10.90;79.30;;;;;;4135005;28;20065;-84
2022/10/03 05:00:00;;;;;;;25.63;3.15;;;11.00;79.50;;;;;;4130448;28;19976;-83
2022/10/03 05:02:24;;;;;;;21.08;2.83;;;11.10;79.30;;;;;;4128467;28;20114;-83
2022/10/03 05:05:12;;;;;;;16.50;2.30;;;11.00;79.30;;;;;;4132518;28;20038;-83
2022/10/03 05:07:42;;;;;;;25.77;2.63;;;11.00;79.40;;;;;;4130720;28;20538;-83
2022/10/03 05:10:19;;;;;;;19.80;2.40;;;11.00;79.40;;;;;;4128401;28;20037;-83
2022/10/03 05:12:54;;;;;;;15.45;2.28;;;11.00;79.40;;;;;;4132879;28;20045;-84
2022/10/03 05:15:21;;;;;;;19.75;2.38;;;11.20;79.60;;;;;;4132387;28;20037;-84
2022/10/03 05:17:54;;;;;;;17.15;1.88;;;11.10;79.50;;;;;;4130445;28;20072;-83
2022/10/03 05:20:13;;;;;;;18.95;1.98;;;11.10;79.60;;;;;;4129447;28;20117;-84
2022/10/03 05:22:53;;;;;;;18.20;2.42;;;11.10;79.60;;;;;;4130999;28;20045;-84
2022/10/03 05:25:47;;;;;;;16.67;2.40;;;11.10;79.80;;;;;;4131841;28;20523;-83
2022/10/03 05:28:14;;;;;;;15.80;1.75;;;11.10;79.70;;;;;;4134876;28;20104;-84
2022/10/03 05:30:42;;;;;;;19.73;2.30;;;11.10;79.60;;;;;;4131289;28;20850;-83
2022/10/03 05:33:21;;;;;;;17.08;2.00;;;11.10;79.60;;;;;;4117573;28;20054;-83
2022/10/03 05:36:24;;;;;;;16.42;2.00;;;11.10;79.60;;;;;;4137945;28;20519;-83
2022/10/03 05:39:21;;;;;;;16.05;2.13;;;11.10;79.50;;;;;;4142428;28;20041;-83
2022/10/03 05:41:52;;;;;;;13.10;2.58;;;11.10;79.40;;;;;;4136649;28;20038;-83
2022/10/03 05:44:18;;;;;;;18.10;2.20;;;11.20;79.30;;;;;;4134406;28;20081;-83
2022/10/03 05:47:00;;;;;;;14.88;2.30;;;11.10;79.20;;;;;;4135992;28;20033;-83
2022/10/03 05:49:41;;;;;;;21.20;2.05;;;11.10;79.20;;;;;;4132330;28;20098;-83
2022/10/03 05:52:04;;;;;;;19.67;2.03;;;11.10;79.20;;;;;;4131098;28;20972;-83
2022/10/03 05:54:26;;;;;;;20.33;2.30;;;11.20;79.60;;;;;;4134805;28;20042;-82
2022/10/03 05:57:13;;;;;;;16.48;2.22;;;11.10;79.30;;;;;;4134451;28;20073;-83
2022/10/03 05:59:44;;;;;;;15.88;1.80;;;11.10;79.30;;;;;;4137069;28;20604;-83
2022/10/03 06:02:31;;;;;;;11.52;1.67;;;11.10;79.30;;;;;;4132987;28;20053;-82
2022/10/03 06:05:22;;;;;;;14.85;1.67;;;11.10;79.40;;;;;;4132767;28;20085;-83
2022/10/03 06:08:19;;;;;;;12.85;2.35;;;11.10;79.40;;;;;;4132990;28;20866;-83
2022/10/03 06:10:41;;;;;;;10.52;1.85;;;11.10;79.40;;;;;;4118747;28;20073;-83
2022/10/03 06:13:42;;;;;;;20.13;2.13;;;11.10;79.40;;;;;;4114070;28;20040;-83
2022/10/03 06:16:08;;;;;;;24.02;2.45;;;11.10;79.70;;;;;;4096664;28;20041;-83
2022/10/03 06:18:50;;;;;;;15.75;2.40;;;11.10;79.60;;;;;;4133445;28;20034;-82
2022/10/03 06:21:32;;;;;;;11.57;2.00;;;11.20;79.90;;;;;;4117845;28;20094;-83
2022/10/03 06:24:17;;;;;;;16.35;1.83;;;11.10;80.60;;;;;;4132644;28;20080;-82
2022/10/03 06:27:01;;;;;;;20.80;2.45;;;11.20;80.00;;;;;;4131470;28;20066;-83
2022/10/03 06:29:44;;;;;;;15.10;1.35;;;11.20;80.10;;;;;;4118448;28;20041;-83
2022/10/03 06:32:41;;;;;;;15.00;2.05;;;11.20;80.20;;;;;;4130752;28;20404;-82
2022/10/03 06:35:07;;;;;;;11.00;1.95;;;11.20;80.20;;;;;;4132714;28;20101;-83
2022/10/03 06:37:48;;;;;;;19.30;2.15;;;11.20;80.20;;;;;;4118806;28;20553;-83
2022/10/03 06:40:38;;;;;;;18.38;1.98;;;11.30;80.30;;;;;;4116700;28;20613;-83
2022/10/03 06:42:58;;;;;;;15.95;2.30;;;11.30;80.30;;;;;;4113837;28;20065;-83
2022/10/03 06:45:55;;;;;;;14.55;2.45;;;11.30;80.30;;;;;;4128913;28;20081;-83
2022/10/03 06:48:47;;;;;;;25.45;2.55;;;11.40;80.50;;;;;;4126552;28;20459;-83
2022/10/03 06:51:09;;;;;;;24.60;2.40;;;11.40;80.50;;;;;;4131157;28;20111;-83
2022/10/03 06:53:41;;;;;;;17.42;2.20;;;11.50;80.50;;;;;;4129965;28;20033;-83
2022/10/03 06:56:19;;;;;;;16.38;2.20;;;11.50;80.60;;;;;;4130774;28;20049;-82
2022/10/03 06:59:06;;;;;;;15.15;2.55;;;11.60;80.50;;;;;;4128016;28;20081;-82
2022/10/03 07:01:44;;;;;;;19.58;3.13;;;11.50;80.50;;;;;;4131046;28;20038;-83
2022/10/03 07:04:56;;;;;;;16.23;2.15;;;11.60;80.50;;;;;;4116916;28;20053;-83
2022/10/03 07:07:37;;;;;;;20.13;2.65;;;11.70;80.60;;;;;;4069590;28;20058;-83
2022/10/03 07:10:00;;;;;;;17.60;2.58;;;11.70;80.50;;;;;;4114296;28;20041;-83
2022/10/03 07:12:43;;;;;;;23.30;2.88;;;11.80;80.40;;;;;;4129157;28;20041;-83
2022/10/03 07:15:39;;;;;;;16.27;2.80;;;11.80;80.40;;;;;;4130791;28;20158;-83
2022/10/03 07:18:34;;;;;;;22.83;2.58;;;11.90;80.50;;;;;;4129879;28;20057;-84
2022/10/03 07:21:24;;;;;;;18.98;2.40;;;11.90;80.30;;;;;;4131514;28;20041;-84
2022/10/03 07:23:53;;;;;;;23.33;3.10;;;12.00;80.20;;;;;;4130241;28;20118;-84
2022/10/03 07:26:38;;;;;;;24.15;2.72;;;12.00;80.10;;;;;;4115976;28;20053;-85
2022/10/03 07:29:16;;;;;;;22.25;2.55;;;12.10;80.20;;;;;;4133993;28;20042;-83
2022/10/03 07:31:53;;;;;;;23.75;3.10;;;12.20;80.00;;;;;;4133041;28;20473;-84
2022/10/03 07:34:24;;;;;;;17.70;2.15;;;12.20;79.70;;;;;;4126777;28;20400;-84
2022/10/03 07:40:21;;;;;;;22.77;3.05;;;12.30;79.50;;;;;;4134342;28;20069;-83
2022/10/03 07:43:36;;;;;;;22.33;2.97;;;12.30;79.20;;;;;;4136819;28;20114;-85
2022/10/03 07:46:47;;;;;;;;;;;;;;;;;;;;;
2022/10/03 07:49:39;;;;;;;19.90;3.17;;;12.40;78.80;;;;;;4135245;28;20120;-84
2022/10/03 07:52:22;;;;;;;21.67;2.80;;;12.50;78.90;;;;;;4117666;28;20085;-84
2022/10/03 07:55:15;;;;;;;20.08;3.28;;;12.70;78.70;;;;;;4144798;28;20083;-84
2022/10/03 07:57:59;;;;;;;20.27;2.63;;;12.70;78.60;;;;;;4118478;28;20126;-83
2022/10/03 08:00:23;;;;;;;16.05;2.88;;;12.70;78.00;;;;;;4117637;28;20137;-84
2022/10/03 08:03:21;;;;;;;23.52;3.05;;;12.80;77.70;;;;;;4133847;28;20065;-83
2022/10/03 08:05:58;;;;;;;20.95;2.83;;;13.00;78.00;;;;;;4084556;29;20053;-83
2022/10/03 08:09:10;;;;;;;16.33;2.00;;;12.90;77.70;;;;;;4070458;29;20729;-83
2022/10/03 08:11:53;;;;;;;20.05;2.58;;;13.00;78.50;;;;;;4083958;29;20123;-83
2022/10/03 08:14:26;;;;;;;21.08;2.70;;;13.00;77.50;;;;;;4081482;29;20071;-84
2022/10/03 08:17:09;;;;;;;15.80;2.35;;;13.10;77.20;;;;;;4069872;29;20761;-82
2022/10/03 08:19:50;;;;;;;22.33;2.90;;;13.00;76.90;;;;;;4082232;29;20051;-83
2022/10/03 08:22:33;;;;;;;17.95;2.80;;;13.20;76.70;;;;;;4094742;28;20058;-84
2022/10/03 08:25:11;;;;;;;20.08;2.55;;;13.20;76.10;;;;;;4083368;29;20129;-84
2022/10/03 08:28:14;;;;;;;17.20;2.80;;;13.30;76.00;;;;;;4084614;29;20046;-84
2022/10/03 08:31:11;;;;;;;22.42;3.08;;;13.30;76.00;;;;;;4082954;29;20101;-84
2022/10/03 08:34:10;;;;;;;22.95;3.40;;;13.30;75.30;;;;;;4082448;29;22008;-83
2022/10/03 08:36:52;;;;;;;25.92;3.20;;;13.40;74.80;;;;;;4082053;29;20092;-85
2022/10/03 08:39:54;;;;;;;23.45;3.20;;;13.50;75.10;;;;;;4078616;29;20532;-84
2022/10/03 08:42:51;;;;;;;23.65;2.72;;;13.50;74.70;;;;;;4096948;28;20071;-84
2022/10/03 08:45:40;;;;;;;17.80;2.90;;;13.50;74.60;;;;;;4128407;28;20042;-83
2022/10/03 08:48:24;;;;;;;27.67;3.10;;;13.60;74.20;;;;;;4131864;28;20096;-85
2022/10/03 08:51:11;;;;;;;16.73;2.28;;;13.70;74.10;;;;;;4134709;28;20129;-84
2022/10/03 08:53:36;;;;;;;19.75;3.30;;;13.70;73.50;;;;;;4134954;28;20175;-84
2022/10/03 08:56:09;;;;;;;21.30;2.70;;;13.80;73.50;;;;;;4134315;28;20638;-85
2022/10/03 08:59:21;;;;;;;18.35;2.92;;;13.80;73.30;;;;;;4133237;28;20097;-86
2022/10/03 09:02:08;;;;;;;16.00;2.10;;;13.90;73.00;;;;;;4049680;29;20080;-84
2022/10/03 09:04:53;;;;;;;13.98;2.58;;;14.00;72.60;;;;;;4063128;29;20071;-84
2022/10/03 09:07:40;;;;;;;17.25;2.35;;;14.00;72.30;;;;;;4065636;29;20473;-84
2022/10/03 09:10:24;;;;;;;15.43;2.40;;;14.10;72.10;;;;;;4062743;29;20046;-85
2022/10/03 09:13:04;;;;;;;16.85;2.63;;;14.20;72.10;;;;;;4051138;29;20043;-86
2022/10/03 09:15:54;;;;;;;18.17;2.55;;;14.20;71.10;;;;;;4063005;29;20043;-84
2022/10/03 09:18:29;;;;;;;15.38;2.63;;;14.30;70.20;;;;;;4063781;29;20043;-84
2022/10/03 09:21:08;;;;;;;;;;;14.30;70.50;;;;;;4065678;29;20042;-85
2022/10/03 09:24:01;;;;;;;17.77;2.55;;;14.40;70.10;;;;;;4062451;29;19918;-84
2022/10/03 09:26:58;;;;;;;22.73;2.92;;;14.40;69.60;;;;;;4065402;29;20042;-84
2022/10/03 09:29:36;;;;;;;18.02;2.65;;;14.50;69.00;;;;;;4066773;29;20052;-82
2022/10/03 09:32:17;;;;;;;12.85;2.13;;;14.60;68.70;;;;;;4066693;29;20070;-83
2022/10/03 09:35:05;;;;;;;14.65;2.25;;;14.60;68.30;;;;;;4065723;29;20050;-85
2022/10/03 09:37:56;;;;;;;15.02;2.35;;;14.60;68.40;;;;;;4075339;28;20038;-82
2022/10/03 09:40:30;;;;;;;10.77;1.65;;;14.70;68.30;;;;;;4130457;28;20137;-85
2022/10/03 09:42:59;;;;;;;;;;;14.80;68.30;;;;;;4113081;28;20045;-84
2022/10/03 09:45:49;;;;;;;20.95;2.22;;;14.80;67.90;;;;;;4130480;28;20631;-84
2022/10/03 09:48:27;;;;;;;21.42;2.22;;;14.90;67.50;;;;;;4137240;28;20574;-83
2022/10/03 09:51:08;;;;;;;14.63;2.20;;;15.10;67.30;;;;;;4140550;28;20052;-84
2022/10/03 09:53:34;;;;;;;19.08;2.83;;;15.00;67.30;;;;;;4114449;28;20050;-83
2022/10/03 09:56:18;;;;;;;13.60;2.30;;;15.10;66.90;;;;;;4127467;28;20562;-85
2022/10/03 09:58:56;;;;;;;18.15;2.22;;;15.10;67.00;;;;;;4117010;28;20057;-85
2022/10/03 10:01:24;;;;;;;17.27;3.20;;;15.20;67.70;;;;;;4127877;28;20379;-85
2022/10/03 10:04:06;;;;;;;20.42;2.60;;;15.20;67.60;;;;;;4131567;28;20073;-84
2022/10/03 10:06:51;;;;;;;15.93;2.67;;;15.30;67.50;;;;;;4127788;28;20062;-84
2022/10/03 10:09:33;;;;;;;15.10;2.10;;;15.30;67.70;;;;;;4123131;28;20057;-84
2022/10/03 10:12:04;;;;;;;13.90;2.20;;;15.40;67.90;;;;;;4126626;28;20088;-85
2022/10/03 10:14:35;;;;;;;18.08;2.47;;;15.40;68.00;;;;;;4124895;28;20032;-85
2022/10/03 10:17:30;;;;;;;12.25;2.35;;;15.40;67.20;;;;;;4124650;28;20045;-85
2022/10/03 10:20:17;;;;;;;17.50;2.22;;;15.50;66.80;;;;;;4126678;28;20120;-85
2022/10/03 10:22:39;;;;;;;15.43;2.85;;;15.50;66.90;;;;;;4124512;28;20050;-86
2022/10/03 10:25:31;;;;;;;19.30;2.42;;;15.60;67.00;;;;;;4128151;28;20076;-84
2022/10/03 10:28:21;;;;;;;14.65;2.10;;;15.60;66.40;;;;;;4061254;29;20055;-86
2022/10/03 10:31:06;;;;;;;14.43;2.15;;;15.70;66.30;;;;;;4056005;29;20192;-85
2022/10/03 10:34:06;;;;;;;10.65;1.88;;;15.70;66.50;;;;;;4057595;29;20122;-84
2022/10/03 10:36:44;;;;;;;17.77;2.60;;;15.70;66.40;;;;;;4057716;29;20789;-83
2022/10/03 10:39:47;;;;;;;12.73;1.77;;;15.80;66.70;;;;;;4061537;29;20210;-85
2022/10/03 10:42:43;;;;;;;15.00;1.80;;;15.80;66.40;;;;;;4059172;29;20046;-86
2022/10/03 10:45:40;;;;;;;12.27;2.20;;;15.90;65.90;;;;;;4058810;29;20144;-82
2022/10/03 10:48:02;;;;;;;11.20;1.83;;;15.90;65.10;;;;;;4063092;29;20038;-82
2022/10/03 10:51:07;;;;;;;9.80;1.75;;;16.00;64.60;;;;;;4066433;29;20099;-83
2022/10/03 10:53:50;;;;;;;12.88;1.80;;;16.00;64.70;;;;;;4065077;29;20067;-84
2022/10/03 10:56:54;;;;;;;10.85;1.65;;;16.00;65.10;;;;;;4065289;29;20080;-83
2022/10/03 10:59:32;;;;;;;7.50;1.60;;;16.10;64.80;;;;;;4064749;29;20150;-83
2022/10/03 11:02:00;;;;;;;17.45;1.77;;;16.10;64.50;;;;;;4059144;29;20077;-84
2022/10/03 11:05:31;;;;;;;12.15;1.80;;;16.20;64.60;;;;;;4091178;28;20069;-83
2022/10/03 11:08:28;;;;;;;14.07;2.15;;;16.10;64.40;;;;;;4121195;28;20050;-84
2022/10/03 11:11:11;;;;;;;13.32;2.13;;;16.20;64.20;;;;;;4126326;28;20052;-84
2022/10/03 11:14:08;;;;;;;9.23;1.48;;;16.40;63.70;;;;;;4112762;28;20037;-83
2022/10/03 11:17:01;;;;;;;11.27;1.63;;;16.30;64.20;;;;;;4128203;28;20049;-83
2022/10/03 11:19:58;;;;;;;9.30;1.63;;;16.30;62.50;;;;;;4143378;28;20076;-83
2022/10/03 11:22:36;;;;;;;11.93;1.40;;;16.20;61.60;;;;;;4131944;28;20049;-83
2022/10/03 11:25:53;;;;;;;12.00;1.45;;;16.30;62.60;;;;;;4127426;28;20058;-83
2022/10/03 11:28:34;;;;;;;7.35;1.65;;;16.30;61.90;;;;;;4113249;28;20097;-82
2022/10/03 11:31:05;;;;;;;7.38;1.15;;;16.20;61.60;;;;;;4132100;28;20050;-84
2022/10/03 11:33:43;;;;;;;7.20;1.52;;;16.30;62.10;;;;;;4128331;28;20102;-82
2022/10/03 11:36:48;;;;;;;8.05;1.50;;;16.20;61.30;;;;;;4113964;28;20118;-84
2022/10/03 11:39:21;;;;;;;10.68;1.40;;;16.10;60.30;;;;;;4067477;29;20047;-83
2022/10/03 11:42:10;;;;;;;8.07;1.50;;;16.10;60.60;;;;;;4063735;29;20051;-83
2022/10/03 11:45:05;;;;;;;6.57;1.42;;;16.10;60.30;;;;;;4065304;29;20047;-83
2022/10/03 11:47:53;;;;;;;6.78;1.00;;;16.00;60.50;;;;;;4018337;29;20056;-83
2022/10/03 11:50:31;;;;;;;10.80;1.95;;;16.00;60.70;;;;;;4019888;29;20069;-83
2022/10/03 11:53:27;;;;;;;7.13;1.27;;;15.90;60.30;;;;;;4014881;29;20137;-83
2022/10/03 11:55:52;;;;;;;5.55;1.15;;;15.90;61.00;;;;;;4018802;29;20154;-83
2022/10/03 11:58:32;;;;;;;10.23;1.40;;;16.00;61.90;;;;;;4018181;29;20089;-83
2022/10/03 12:01:18;;;;;;;9.18;1.23;;;16.00;62.30;;;;;;4019626;29;20084;-84
2022/10/03 12:03:50;;;;;;;11.48;1.85;;;16.10;62.40;;;;;;4006363;29;20101;-83
2022/10/03 12:09:27;;;;;;;8.55;1.17;;;16.10;62.00;;;;;;4018822;29;20051;-83
2022/10/03 12:12:07;;;;;;;11.18;1.35;;;16.10;61.90;;;;;;4020434;29;20518;-83
2022/10/03 12:14:34;;;;;;;7.18;1.80;;;16.10;62.10;;;;;;4018900;29;20040;-83
2022/10/03 12:17:14;;;;;;;9.90;1.35;;;16.10;61.50;;;;;;4061334;29;20042;-83
2022/10/03 12:20:01;;;;;;;13.43;1.70;;;16.10;61.50;;;;;;4049209;29;20096;-84
2022/10/03 12:22:35;;;;;;;9.30;0.98;;;16.10;61.20;;;;;;4076457;28;20045;-83
2022/10/03 12:25:00;;;;;;;;;;;16.10;61.30;;;;;;4132703;28;20045;-85
2022/10/03 12:27:46;;;;;;;15.07;2.08;;;16.10;61.40;;;;;;4110647;28;19925;-84
2022/10/03 12:30:15;;;;;;;11.30;1.52;;;16.10;61.90;;;;;;4127807;28;20056;-85
2022/10/03 12:32:57;;;;;;;10.10;1.40;;;16.10;62.60;;;;;;4128182;28;20029;-84
2022/10/03 12:35:39;;;;;;;13.98;1.65;;;16.10;62.80;;;;;;4130818;28;20040;-84
2022/10/03 12:38:20;;;;;;;10.55;1.52;;;16.10;62.80;;;;;;4117305;28;20161;-83
2022/10/03 12:40:48;;;;;;;11.57;1.50;;;16.10;61.90;;;;;;4129819;28;20096;-81
2022/10/03 12:43:41;;;;;;;13.30;1.65;;;16.20;61.60;;;;;;4127155;28;20046;-85
2022/10/03 12:46:32;;;;;;;15.70;1.80;;;16.10;61.30;;;;;;4126379;28;20077;-84
2022/10/03 12:49:14;;;;;;;13.77;2.00;;;16.10;61.60;;;;;;4128363;28;21847;-84
2022/10/03 12:51:51;;;;;;;9.98;1.48;;;16.10;61.60;;;;;;4130467;28;20065;-82
2022/10/03 12:54:20;;;;;;;15.82;2.40;;;16.10;61.70;;;;;;4113657;28;20170;-83
2022/10/03 12:57:09;;;;;;;13.82;1.85;;;16.20;61.30;;;;;;4128847;28;20517;-83
2022/10/03 12:59:41;;;;;;;13.02;1.65;;;16.00;60.90;;;;;;4076879;29;20608;-84
2022/10/03 13:02:19;;;;;;;12.20;2.03;;;16.00;60.70;;;;;;4073432;29;20099;-84
2022/10/03 13:04:41;;;;;;;15.95;1.75;;;16.00;61.00;;;;;;4074688;29;20083;-84
2022/10/03 13:07:37;;;;;;;15.13;1.98;;;16.00;61.50;;;;;;4076278;29;20154;-83
2022/10/03 13:10:14;;;;;;;19.05;2.28;;;16.00;61.40;;;;;;4077468;29;20039;-83
2022/10/03 13:13:05;;;;;;;12.35;2.25;;;16.00;61.90;;;;;;4072607;29;20042;-84
2022/10/03 13:15:44;;;;;;;18.58;2.20;;;16.00;61.80;;;;;;4053213;29;20118;-83
2022/10/03 13:18:14;;;;;;;16.20;2.17;;;16.00;61.90;;;;;;4070915;29;20047;-82
2022/10/03 13:20:42;;;;;;;19.67;2.47;;;16.10;62.50;;;;;;4071693;29;20034;-83
2022/10/03 13:23:39;;;;;;;16.58;2.35;;;16.00;62.40;;;;;;4063126;29;20049;-83
2022/10/03 13:26:20;;;;;;;12.10;2.03;;;16.00;62.60;;;;;;4071728;29;20046;-84
2022/10/03 13:29:10;;;;;;;11.35;1.67;;;16.00;63.00;;;;;;4074112;29;20047;-83
2022/10/03 13:31:32;;;;;;;17.35;2.58;;;16.00;63.10;;;;;;4073441;29;20453;-83
2022/10/03 13:33:59;;;;;;;18.00;2.22;;;16.00;63.30;;;;;;4063511;29;20039;-83
2022/10/03 13:36:49;;;;;;;12.93;2.28;;;16.00;63.40;;;;;;4090255;28;20246;-83
2022/10/03 13:39:38;;;;;;;16.27;2.08;;;16.00;63.20;;;;;;4124900;28;20065;-81
2022/10/03 13:42:09;;;;;;;10.15;1.70;;;16.00;63.50;;;;;;4125778;28;20413;-84
2022/10/03 13:44:43;;;;;;;15.45;2.15;;;16.00;63.80;;;;;;4111915;28;20644;-82
2022/10/03 13:47:52;;;;;;;10.88;1.88;;;15.90;63.60;;;;;;4115026;28;20139;-83
2022/10/03 13:50:26;;;;;;;20.48;2.17;;;15.90;63.90;;;;;;4130364;28;20049;-83
2022/10/03 13:53:23;;;;;;;13.90;1.95;;;15.90;64.10;;;;;;4130054;28;20033;-82
2022/10/03 13:55:54;;;;;;;17.33;2.22;;;15.90;64.10;;;;;;4129902;28;20041;-82
2022/10/03 13:58:16;;;;;;;18.20;2.13;;;15.90;64.20;;;;;;4125859;28;20057;-83
2022/10/03 14:01:10;;;;;;;10.95;1.90;;;15.90;64.20;;;;;;4127959;28;20065;-83
2022/10/03 14:03:44;;;;;;;16.42;2.20;;;15.90;64.10;;;;;;4125478;28;20097;-83
2022/10/03 14:06:31;;;;;;;19.67;3.33;;;15.90;64.40;;;;;;4128086;28;20161;-83